sensor_id;sensor_type;location;lat;lon;timestamp;P1;durP1;ratioP1;P2;durP2;ratioP2
50585;SDS011;36542;51.700;8.846;2023-03-11T00:00:27;21.27;;;7.80;;
50585;SDS011;36542;51.700;8.846;2023-03-11T00:02:54;17.03;;;6.97;;
50585;SDS011;36542;51.700;8.846;2023-03-11T00:05:23;16.53;;;6.33;;
50585;SDS011;36542;51.700;8.846;2023-03-11T00:07:50;27.23;;;7.63;;
50585;SDS011;36542;51.700;8.846;2023-03-11T00:10:21;21.80;;;7.70;;
50585;SDS011;36542;51.700;8.846;2023-03-11T00:12:48;23.30;;;6.83;;
50585;SDS011;36542;51.700;8.846;2023-03-11T00:15:13;20.33;;;6.70;;
50585;SDS011;36542;51.700;8.846;2023-03-11T00:17:39;18.67;;;6.80;;
50585;SDS011;36542;51.700;8.846;2023-03-11T00:20:05;21.93;;;7.33;;
50585;SDS011;36542;51.700;8.846;2023-03-11T00:22:31;20.57;;;7.77;;
50585;SDS011;36542;51.700;8.846;2023-03-11T00:24:57;14.40;;;5.63;;
50585;SDS011;36542;51.700;8.846;2023-03-11T00:27:22;15.93;;;7.07;;
50585;SDS011;36542;51.700;8.846;2023-03-11T00:29:48;20.63;;;7.77;;
50585;SDS011;36542;51.700;8.846;2023-03-11T00:32:13;16.77;;;7.27;;
50585;SDS011;36542;51.700;8.846;2023-03-11T00:34:39;22.50;;;8.77;;
50585;SDS011;36542;51.700;8.846;2023-03-11T00:37:04;20.80;;;8.70;;
50585;SDS011;36542;51.700;8.846;2023-03-11T00:39:30;23.53;;;7.93;;
50585;SDS011;36542;51.700;8.846;2023-03-11T00:41:55;24.47;;;7.70;;
50585;SDS011;36542;51.700;8.846;2023-03-11T00:44:21;18.37;;;7.83;;
50585;SDS011;36542;51.700;8.846;2023-03-11T00:46:47;20.27;;;8.20;;
50585;SDS011;36542;51.700;8.846;2023-03-11T00:49:12;22.03;;;9.83;;
50585;SDS011;36542;51.700;8.846;2023-03-11T00:51:38;20.20;;;8.80;;
50585;SDS011;36542;51.700;8.846;2023-03-11T00:54:03;23.37;;;9.00;;
50585;SDS011;36542;51.700;8.846;2023-03-11T00:56:29;26.07;;;9.77;;
50585;SDS011;36542;51.700;8.846;2023-03-11T00:58:55;18.27;;;8.03;;
50585;SDS011;36542;51.700;8.846;2023-03-11T01:01:21;22.67;;;9.60;;
50585;SDS011;36542;51.700;8.846;2023-03-11T01:03:46;26.93;;;11.00;;
50585;SDS011;36542;51.700;8.846;2023-03-11T01:06:12;21.73;;;8.90;;
50585;SDS011;36542;51.700;8.846;2023-03-11T01:08:37;23.43;;;10.77;;
50585;SDS011;36542;51.700;8.846;2023-03-11T01:11:03;21.53;;;9.40;;
50585;SDS011;36542;51.700;8.846;2023-03-11T01:13:30;23.53;;;8.73;;
50585;SDS011;36542;51.700;8.846;2023-03-11T01:15:56;22.27;;;8.70;;
50585;SDS011;36542;51.700;8.846;2023-03-11T01:18:22;23.23;;;8.50;;
50585;SDS011;36542;51.700;8.846;2023-03-11T01:20:48;20.57;;;9.20;;
50585;SDS011;36542;51.700;8.846;2023-03-11T01:23:15;26.37;;;11.77;;
50585;SDS011;36542;51.700;8.846;2023-03-11T01:25:41;21.20;;;9.67;;
50585;SDS011;36542;51.700;8.846;2023-03-11T01:28:06;25.77;;;11.10;;
50585;SDS011;36542;51.700;8.846;2023-03-11T01:30:32;24.47;;;10.73;;
50585;SDS011;36542;51.700;8.846;2023-03-11T01:33:00;31.60;;;12.03;;
50585;SDS011;36542;51.700;8.846;2023-03-11T01:35:27;26.47;;;12.03;;
50585;SDS011;36542;51.700;8.846;2023-03-11T01:37:54;28.23;;;10.77;;
50585;SDS011;36542;51.700;8.846;2023-03-11T01:40:30;26.80;;;10.50;;
50585;SDS011;36542;51.700;8.846;2023-03-11T01:42:58;26.80;;;11.27;;
50585;SDS011;36542;51.700;8.846;2023-03-11T01:48:11;26.63;;;10.97;;
50585;SDS011;36542;51.700;8.846;2023-03-11T01:50:41;22.70;;;10.63;;
50585;SDS011;36542;51.700;8.846;2023-03-11T01:53:09;24.67;;;10.87;;
50585;SDS011;36542;51.700;8.846;2023-03-11T01:55:35;24.03;;;10.20;;
50585;SDS011;36542;51.700;8.846;2023-03-11T01:58:02;19.33;;;8.93;;
50585;SDS011;36542;51.700;8.846;2023-03-11T02:00:31;25.33;;;10.20;;
50585;SDS011;36542;51.700;8.846;2023-03-11T02:02:57;22.23;;;10.43;;
50585;SDS011;36542;51.700;8.846;2023-03-11T02:05:27;29.83;;;12.50;;
50585;SDS011;36542;51.700;8.846;2023-03-11T02:07:52;26.57;;;12.13;;
50585;SDS011;36542;51.700;8.846;2023-03-11T02:10:19;24.43;;;10.97;;
50585;SDS011;36542;51.700;8.846;2023-03-11T02:12:45;24.97;;;11.23;;
50585;SDS011;36542;51.700;8.846;2023-03-11T02:15:12;25.90;;;10.87;;
50585;SDS011;36542;51.700;8.846;2023-03-11T02:17:39;27.33;;;10.60;;
50585;SDS011;36542;51.700;8.846;2023-03-11T02:20:20;31.13;;;10.27;;
50585;SDS011;36542;51.700;8.846;2023-03-11T02:22:52;26.83;;;10.70;;
50585;SDS011;36542;51.700;8.846;2023-03-11T02:25:39;20.20;;;9.70;;
50585;SDS011;36542;51.700;8.846;2023-03-11T02:28:07;21.50;;;11.23;;
50585;SDS011;36542;51.700;8.846;2023-03-11T02:30:35;23.50;;;10.37;;
50585;SDS011;36542;51.700;8.846;2023-03-11T02:33:03;21.70;;;9.37;;
50585;SDS011;36542;51.700;8.846;2023-03-11T02:35:29;23.43;;;9.63;;
50585;SDS011;36542;51.700;8.846;2023-03-11T02:37:55;24.87;;;10.20;;
50585;SDS011;36542;51.700;8.846;2023-03-11T02:42:46;25.70;;;10.17;;
50585;SDS011;36542;51.700;8.846;2023-03-11T02:45:14;20.87;;;10.47;;
50585;SDS011;36542;51.700;8.846;2023-03-11T02:47:42;26.57;;;9.67;;
50585;SDS011;36542;51.700;8.846;2023-03-11T02:50:08;23.10;;;9.67;;
50585;SDS011;36542;51.700;8.846;2023-03-11T02:52:37;23.67;;;9.53;;
50585;SDS011;36542;51.700;8.846;2023-03-11T02:55:03;21.53;;;8.90;;
50585;SDS011;36542;51.700;8.846;2023-03-11T02:57:29;21.23;;;10.00;;
50585;SDS011;36542;51.700;8.846;2023-03-11T02:59:55;23.57;;;10.80;;
50585;SDS011;36542;51.700;8.846;2023-03-11T03:02:20;23.17;;;10.93;;
50585;SDS011;36542;51.700;8.846;2023-03-11T03:04:46;25.33;;;10.03;;
50585;SDS011;36542;51.700;8.846;2023-03-11T03:07:11;27.77;;;10.80;;
50585;SDS011;36542;51.700;8.846;2023-03-11T03:09:37;21.80;;;10.50;;
50585;SDS011;36542;51.700;8.846;2023-03-11T03:12:03;22.30;;;10.60;;
50585;SDS011;36542;51.700;8.846;2023-03-11T03:14:29;20.47;;;10.23;;
50585;SDS011;36542;51.700;8.846;2023-03-11T03:16:54;21.27;;;11.17;;
50585;SDS011;36542;51.700;8.846;2023-03-11T03:19:20;26.23;;;10.20;;
50585;SDS011;36542;51.700;8.846;2023-03-11T03:21:45;28.37;;;11.13;;
50585;SDS011;36542;51.700;8.846;2023-03-11T03:24:11;27.80;;;12.30;;
50585;SDS011;36542;51.700;8.846;2023-03-11T03:26:36;26.67;;;13.00;;
50585;SDS011;36542;51.700;8.846;2023-03-11T03:29:02;20.83;;;10.70;;
50585;SDS011;36542;51.700;8.846;2023-03-11T03:31:30;24.60;;;11.70;;
50585;SDS011;36542;51.700;8.846;2023-03-11T03:33:56;28.50;;;11.10;;
50585;SDS011;36542;51.700;8.846;2023-03-11T03:36:22;23.33;;;11.17;;
50585;SDS011;36542;51.700;8.846;2023-03-11T03:38:48;17.97;;;10.33;;
50585;SDS011;36542;51.700;8.846;2023-03-11T03:41:17;25.33;;;11.57;;
50585;SDS011;36542;51.700;8.846;2023-03-11T03:43:42;28.57;;;12.10;;
50585;SDS011;36542;51.700;8.846;2023-03-11T03:46:08;24.57;;;10.17;;
50585;SDS011;36542;51.700;8.846;2023-03-11T03:48:33;24.50;;;10.93;;
50585;SDS011;36542;51.700;8.846;2023-03-11T03:51:06;26.40;;;10.10;;
50585;SDS011;36542;51.700;8.846;2023-03-11T03:53:33;26.90;;;10.63;;
50585;SDS011;36542;51.700;8.846;2023-03-11T03:56:03;20.73;;;9.73;;
50585;SDS011;36542;51.700;8.846;2023-03-11T03:58:30;20.93;;;9.83;;
50585;SDS011;36542;51.700;8.846;2023-03-11T04:00:56;19.40;;;9.23;;
50585;SDS011;36542;51.700;8.846;2023-03-11T04:03:23;25.00;;;10.27;;
50585;SDS011;36542;51.700;8.846;2023-03-11T04:05:50;21.40;;;10.93;;
50585;SDS011;36542;51.700;8.846;2023-03-11T04:08:15;23.97;;;11.23;;
50585;SDS011;36542;51.700;8.846;2023-03-11T04:10:41;22.73;;;9.83;;
50585;SDS011;36542;51.700;8.846;2023-03-11T04:13:07;24.13;;;10.23;;
50585;SDS011;36542;51.700;8.846;2023-03-11T04:15:32;26.97;;;10.83;;
50585;SDS011;36542;51.700;8.846;2023-03-11T04:17:58;21.57;;;9.90;;
50585;SDS011;36542;51.700;8.846;2023-03-11T04:20:23;23.20;;;9.17;;
50585;SDS011;36542;51.700;8.846;2023-03-11T04:22:49;22.07;;;10.40;;
50585;SDS011;36542;51.700;8.846;2023-03-11T04:25:14;23.93;;;11.97;;
50585;SDS011;36542;51.700;8.846;2023-03-11T04:27:40;20.47;;;10.13;;
50585;SDS011;36542;51.700;8.846;2023-03-11T04:30:10;25.37;;;10.93;;
50585;SDS011;36542;51.700;8.846;2023-03-11T04:32:36;23.53;;;10.00;;
50585;SDS011;36542;51.700;8.846;2023-03-11T04:35:02;19.20;;;10.83;;
50585;SDS011;36542;51.700;8.846;2023-03-11T04:37:28;21.57;;;10.67;;
50585;SDS011;36542;51.700;8.846;2023-03-11T04:39:53;23.57;;;10.17;;
50585;SDS011;36542;51.700;8.846;2023-03-11T04:42:19;24.73;;;11.07;;
50585;SDS011;36542;51.700;8.846;2023-03-11T04:44:45;24.07;;;10.20;;
50585;SDS011;36542;51.700;8.846;2023-03-11T04:47:10;20.40;;;10.87;;
50585;SDS011;36542;51.700;8.846;2023-03-11T04:49:35;29.73;;;11.17;;
50585;SDS011;36542;51.700;8.846;2023-03-11T04:52:01;24.40;;;11.37;;
50585;SDS011;36542;51.700;8.846;2023-03-11T04:54:27;19.10;;;9.97;;
50585;SDS011;36542;51.700;8.846;2023-03-11T04:56:52;26.63;;;11.63;;
50585;SDS011;36542;51.700;8.846;2023-03-11T04:59:18;25.67;;;11.80;;
50585;SDS011;36542;51.700;8.846;2023-03-11T05:01:43;26.47;;;11.20;;
50585;SDS011;36542;51.700;8.846;2023-03-11T05:04:09;30.00;;;11.73;;
50585;SDS011;36542;51.700;8.846;2023-03-11T05:06:35;28.00;;;13.43;;
50585;SDS011;36542;51.700;8.846;2023-03-11T05:09:01;26.90;;;10.87;;
50585;SDS011;36542;51.700;8.846;2023-03-11T05:11:27;22.93;;;10.53;;
50585;SDS011;36542;51.700;8.846;2023-03-11T05:13:52;22.20;;;10.43;;
50585;SDS011;36542;51.700;8.846;2023-03-11T05:16:17;22.47;;;9.70;;
50585;SDS011;36542;51.700;8.846;2023-03-11T05:18:43;18.20;;;10.10;;
50585;SDS011;36542;51.700;8.846;2023-03-11T05:21:08;18.33;;;9.67;;
50585;SDS011;36542;51.700;8.846;2023-03-11T05:23:34;21.17;;;9.57;;
50585;SDS011;36542;51.700;8.846;2023-03-11T05:26:00;27.83;;;9.27;;
50585;SDS011;36542;51.700;8.846;2023-03-11T05:28:25;21.10;;;9.47;;
50585;SDS011;36542;51.700;8.846;2023-03-11T05:30:51;17.47;;;9.63;;
50585;SDS011;36542;51.700;8.846;2023-03-11T05:33:16;16.47;;;8.60;;
50585;SDS011;36542;51.700;8.846;2023-03-11T05:35:42;18.30;;;8.23;;
50585;SDS011;36542;51.700;8.846;2023-03-11T05:38:07;25.73;;;9.43;;
50585;SDS011;36542;51.700;8.846;2023-03-11T05:40:33;15.30;;;8.90;;
50585;SDS011;36542;51.700;8.846;2023-03-11T05:42:58;19.63;;;8.87;;
50585;SDS011;36542;51.700;8.846;2023-03-11T05:45:24;21.47;;;8.87;;
50585;SDS011;36542;51.700;8.846;2023-03-11T05:47:50;23.20;;;9.37;;
50585;SDS011;36542;51.700;8.846;2023-03-11T05:50:17;17.27;;;8.30;;
50585;SDS011;36542;51.700;8.846;2023-03-11T05:52:42;20.60;;;8.70;;
50585;SDS011;36542;51.700;8.846;2023-03-11T05:55:08;17.97;;;8.27;;
50585;SDS011;36542;51.700;8.846;2023-03-11T05:57:36;21.43;;;8.87;;
50585;SDS011;36542;51.700;8.846;2023-03-11T06:00:03;17.87;;;8.20;;
50585;SDS011;36542;51.700;8.846;2023-03-11T06:02:37;15.33;;;7.80;;
50585;SDS011;36542;51.700;8.846;2023-03-11T06:05:03;29.97;;;8.83;;
50585;SDS011;36542;51.700;8.846;2023-03-11T06:07:30;19.67;;;7.20;;
50585;SDS011;36542;51.700;8.846;2023-03-11T06:09:55;18.47;;;7.40;;
50585;SDS011;36542;51.700;8.846;2023-03-11T06:12:21;18.13;;;8.03;;
50585;SDS011;36542;51.700;8.846;2023-03-11T06:14:46;15.53;;;7.70;;
50585;SDS011;36542;51.700;8.846;2023-03-11T06:17:12;17.73;;;7.87;;
50585;SDS011;36542;51.700;8.846;2023-03-11T06:19:37;18.70;;;7.60;;
50585;SDS011;36542;51.700;8.846;2023-03-11T06:22:02;19.43;;;7.33;;
50585;SDS011;36542;51.700;8.846;2023-03-11T06:24:28;14.40;;;6.63;;
50585;SDS011;36542;51.700;8.846;2023-03-11T06:26:53;14.60;;;6.33;;
50585;SDS011;36542;51.700;8.846;2023-03-11T06:29:19;14.17;;;6.77;;
50585;SDS011;36542;51.700;8.846;2023-03-11T06:31:48;16.53;;;6.07;;
50585;SDS011;36542;51.700;8.846;2023-03-11T06:34:13;11.23;;;7.03;;
50585;SDS011;36542;51.700;8.846;2023-03-11T06:36:39;8.43;;;5.23;;
50585;SDS011;36542;51.700;8.846;2023-03-11T06:39:05;16.13;;;5.43;;
50585;SDS011;36542;51.700;8.846;2023-03-11T06:41:33;13.37;;;5.00;;
50585;SDS011;36542;51.700;8.846;2023-03-11T06:43:59;13.30;;;5.50;;
50585;SDS011;36542;51.700;8.846;2023-03-11T06:46:24;10.83;;;5.10;;
50585;SDS011;36542;51.700;8.846;2023-03-11T06:48:50;9.60;;;5.57;;
50585;SDS011;36542;51.700;8.846;2023-03-11T06:51:16;12.63;;;4.80;;
50585;SDS011;36542;51.700;8.846;2023-03-11T06:53:42;9.17;;;6.17;;
50585;SDS011;36542;51.700;8.846;2023-03-11T06:56:11;9.57;;;5.30;;
50585;SDS011;36542;51.700;8.846;2023-03-11T06:58:38;11.83;;;5.23;;
50585;SDS011;36542;51.700;8.846;2023-03-11T07:01:06;9.40;;;4.17;;
50585;SDS011;36542;51.700;8.846;2023-03-11T07:03:36;10.97;;;4.70;;
50585;SDS011;36542;51.700;8.846;2023-03-11T07:06:02;11.40;;;4.87;;
50585;SDS011;36542;51.700;8.846;2023-03-11T07:08:28;8.80;;;4.80;;
50585;SDS011;36542;51.700;8.846;2023-03-11T07:11:04;9.57;;;4.73;;
50585;SDS011;36542;51.700;8.846;2023-03-11T07:13:32;10.17;;;4.57;;
50585;SDS011;36542;51.700;8.846;2023-03-11T07:16:01;13.67;;;4.63;;
50585;SDS011;36542;51.700;8.846;2023-03-11T07:18:39;9.13;;;4.53;;
50585;SDS011;36542;51.700;8.846;2023-03-11T07:21:05;12.50;;;5.10;;
50585;SDS011;36542;51.700;8.846;2023-03-11T07:23:32;8.77;;;5.17;;
50585;SDS011;36542;51.700;8.846;2023-03-11T07:25:58;9.70;;;4.43;;
50585;SDS011;36542;51.700;8.846;2023-03-11T07:28:24;7.90;;;4.33;;
50585;SDS011;36542;51.700;8.846;2023-03-11T07:30:51;5.47;;;3.67;;
50585;SDS011;36542;51.700;8.846;2023-03-11T07:33:17;10.17;;;4.33;;
50585;SDS011;36542;51.700;8.846;2023-03-11T07:35:43;9.67;;;5.40;;
50585;SDS011;36542;51.700;8.846;2023-03-11T07:38:09;14.27;;;5.53;;
50585;SDS011;36542;51.700;8.846;2023-03-11T07:40:34;8.00;;;3.77;;
50585;SDS011;36542;51.700;8.846;2023-03-11T07:43:00;7.90;;;4.53;;
50585;SDS011;36542;51.700;8.846;2023-03-11T07:45:25;16.27;;;8.03;;
50585;SDS011;36542;51.700;8.846;2023-03-11T07:47:51;13.03;;;4.97;;
50585;SDS011;36542;51.700;8.846;2023-03-11T07:50:17;10.53;;;4.03;;
50585;SDS011;36542;51.700;8.846;2023-03-11T07:52:43;5.63;;;2.83;;
50585;SDS011;36542;51.700;8.846;2023-03-11T07:55:08;9.17;;;3.50;;
50585;SDS011;36542;51.700;8.846;2023-03-11T07:57:34;7.33;;;3.93;;
50585;SDS011;36542;51.700;8.846;2023-03-11T07:59:59;7.40;;;4.40;;
50585;SDS011;36542;51.700;8.846;2023-03-11T08:02:26;6.03;;;3.33;;
50585;SDS011;36542;51.700;8.846;2023-03-11T08:04:51;6.83;;;3.90;;
50585;SDS011;36542;51.700;8.846;2023-03-11T08:07:17;5.73;;;3.67;;
50585;SDS011;36542;51.700;8.846;2023-03-11T08:09:44;5.43;;;3.30;;
50585;SDS011;36542;51.700;8.846;2023-03-11T08:12:10;8.60;;;3.80;;
50585;SDS011;36542;51.700;8.846;2023-03-11T08:14:35;5.70;;;3.10;;
50585;SDS011;36542;51.700;8.846;2023-03-11T08:17:01;6.30;;;4.17;;
50585;SDS011;36542;51.700;8.846;2023-03-11T08:19:27;5.33;;;3.40;;
50585;SDS011;36542;51.700;8.846;2023-03-11T08:21:53;8.27;;;3.57;;
50585;SDS011;36542;51.700;8.846;2023-03-11T08:24:18;9.50;;;3.50;;
50585;SDS011;36542;51.700;8.846;2023-03-11T08:26:44;8.20;;;2.93;;
50585;SDS011;36542;51.700;8.846;2023-03-11T08:29:09;6.53;;;3.10;;
50585;SDS011;36542;51.700;8.846;2023-03-11T08:31:35;7.97;;;3.30;;
50585;SDS011;36542;51.700;8.846;2023-03-11T08:34:01;5.50;;;2.93;;
50585;SDS011;36542;51.700;8.846;2023-03-11T08:36:30;5.20;;;2.20;;
50585;SDS011;36542;51.700;8.846;2023-03-11T08:38:56;8.87;;;2.50;;
50585;SDS011;36542;51.700;8.846;2023-03-11T08:41:21;12.47;;;2.73;;
50585;SDS011;36542;51.700;8.846;2023-03-11T08:43:47;8.30;;;2.43;;
50585;SDS011;36542;51.700;8.846;2023-03-11T08:46:34;5.97;;;2.63;;
50585;SDS011;36542;51.700;8.846;2023-03-11T08:49:00;4.50;;;2.47;;
50585;SDS011;36542;51.700;8.846;2023-03-11T08:51:27;6.63;;;2.50;;
50585;SDS011;36542;51.700;8.846;2023-03-11T08:53:54;6.57;;;2.57;;
50585;SDS011;36542;51.700;8.846;2023-03-11T08:56:20;7.07;;;2.37;;
50585;SDS011;36542;51.700;8.846;2023-03-11T08:58:45;5.70;;;2.27;;
50585;SDS011;36542;51.700;8.846;2023-03-11T09:01:11;6.27;;;2.17;;
50585;SDS011;36542;51.700;8.846;2023-03-11T09:03:38;4.87;;;1.80;;
50585;SDS011;36542;51.700;8.846;2023-03-11T09:06:05;4.50;;;2.40;;
50585;SDS011;36542;51.700;8.846;2023-03-11T09:08:32;4.90;;;2.10;;
50585;SDS011;36542;51.700;8.846;2023-03-11T09:10:58;7.53;;;1.93;;
50585;SDS011;36542;51.700;8.846;2023-03-11T09:13:23;4.20;;;2.00;;
50585;SDS011;36542;51.700;8.846;2023-03-11T09:15:50;3.50;;;1.83;;
50585;SDS011;36542;51.700;8.846;2023-03-11T09:18:16;3.40;;;1.93;;
50585;SDS011;36542;51.700;8.846;2023-03-11T09:20:42;5.03;;;1.80;;
50585;SDS011;36542;51.700;8.846;2023-03-11T09:23:09;5.33;;;1.70;;
50585;SDS011;36542;51.700;8.846;2023-03-11T09:25:37;5.70;;;1.90;;
50585;SDS011;36542;51.700;8.846;2023-03-11T09:28:03;3.03;;;1.60;;
50585;SDS011;36542;51.700;8.846;2023-03-11T09:30:29;3.17;;;1.70;;
50585;SDS011;36542;51.700;8.846;2023-03-11T09:32:54;6.17;;;1.80;;
50585;SDS011;36542;51.700;8.846;2023-03-11T09:35:20;4.10;;;1.60;;
50585;SDS011;36542;51.700;8.846;2023-03-11T09:37:45;4.13;;;1.67;;
50585;SDS011;36542;51.700;8.846;2023-03-11T09:40:15;7.93;;;2.33;;
50585;SDS011;36542;51.700;8.846;2023-03-11T09:42:44;5.37;;;2.10;;
50585;SDS011;36542;51.700;8.846;2023-03-11T09:45:29;4.07;;;1.70;;
50585;SDS011;36542;51.700;8.846;2023-03-11T09:48:03;3.83;;;1.70;;
50585;SDS011;36542;51.700;8.846;2023-03-11T09:50:49;2.40;;;1.50;;
50585;SDS011;36542;51.700;8.846;2023-03-11T09:53:34;2.57;;;1.53;;
50585;SDS011;36542;51.700;8.846;2023-03-11T09:56:06;3.43;;;1.70;;
50585;SDS011;36542;51.700;8.846;2023-03-11T09:58:38;5.57;;;1.93;;
50585;SDS011;36542;51.700;8.846;2023-03-11T10:01:11;2.27;;;1.63;;
50585;SDS011;36542;51.700;8.846;2023-03-11T10:03:41;2.67;;;1.47;;
50585;SDS011;36542;51.700;8.846;2023-03-11T10:06:12;7.07;;;2.10;;
50585;SDS011;36542;51.700;8.846;2023-03-11T10:08:44;4.00;;;1.47;;
50585;SDS011;36542;51.700;8.846;2023-03-11T10:11:15;4.57;;;1.97;;
50585;SDS011;36542;51.700;8.846;2023-03-11T10:14:11;4.20;;;1.60;;
50585;SDS011;36542;51.700;8.846;2023-03-11T10:16:55;3.63;;;1.97;;
50585;SDS011;36542;51.700;8.846;2023-03-11T10:22:13;3.90;;;1.60;;
50585;SDS011;36542;51.700;8.846;2023-03-11T10:24:51;3.93;;;1.73;;
50585;SDS011;36542;51.700;8.846;2023-03-11T10:27:30;5.60;;;1.83;;
50585;SDS011;36542;51.700;8.846;2023-03-11T10:30:03;3.63;;;1.40;;
50585;SDS011;36542;51.700;8.846;2023-03-11T10:35:31;1.87;;;1.30;;
50585;SDS011;36542;51.700;8.846;2023-03-11T10:40:47;6.97;;;1.83;;
50585;SDS011;36542;51.700;8.846;2023-03-11T10:43:34;5.43;;;1.50;;
50585;SDS011;36542;51.700;8.846;2023-03-11T10:46:04;4.63;;;1.60;;
50585;SDS011;36542;51.700;8.846;2023-03-11T10:48:39;6.50;;;1.60;;
50585;SDS011;36542;51.700;8.846;2023-03-11T10:51:26;1.97;;;1.40;;
50585;SDS011;36542;51.700;8.846;2023-03-11T10:53:59;2.30;;;1.50;;
50585;SDS011;36542;51.700;8.846;2023-03-11T10:59:00;2.83;;;1.50;;
50585;SDS011;36542;51.700;8.846;2023-03-11T11:01:27;3.60;;;1.30;;
50585;SDS011;36542;51.700;8.846;2023-03-11T11:03:54;8.00;;;1.33;;
50585;SDS011;36542;51.700;8.846;2023-03-11T11:06:29;4.77;;;1.53;;
50585;SDS011;36542;51.700;8.846;2023-03-11T11:09:06;6.80;;;1.80;;
50585;SDS011;36542;51.700;8.846;2023-03-11T11:11:40;6.80;;;1.50;;
50585;SDS011;36542;51.700;8.846;2023-03-11T11:14:06;4.50;;;1.73;;
50585;SDS011;36542;51.700;8.846;2023-03-11T11:16:33;4.80;;;1.67;;
50585;SDS011;36542;51.700;8.846;2023-03-11T11:21:38;3.43;;;1.77;;
50585;SDS011;36542;51.700;8.846;2023-03-11T11:26:39;4.70;;;1.87;;
50585;SDS011;36542;51.700;8.846;2023-03-11T11:31:34;3.50;;;1.23;;
50585;SDS011;36542;51.700;8.846;2023-03-11T11:34:01;3.10;;;1.33;;
50585;SDS011;36542;51.700;8.846;2023-03-11T11:36:28;4.53;;;1.50;;
50585;SDS011;36542;51.700;8.846;2023-03-11T11:38:55;4.43;;;1.60;;
50585;SDS011;36542;51.700;8.846;2023-03-11T11:41:23;3.13;;;1.33;;
50585;SDS011;36542;51.700;8.846;2023-03-11T11:43:55;5.83;;;1.63;;
50585;SDS011;36542;51.700;8.846;2023-03-11T11:49:18;6.00;;;1.80;;
50585;SDS011;36542;51.700;8.846;2023-03-11T11:52:04;6.47;;;1.53;;
50585;SDS011;36542;51.700;8.846;2023-03-11T11:54:35;4.10;;;1.40;;
50585;SDS011;36542;51.700;8.846;2023-03-11T11:57:17;6.03;;;1.70;;
50585;SDS011;36542;51.700;8.846;2023-03-11T11:59:45;6.07;;;1.50;;
50585;SDS011;36542;51.700;8.846;2023-03-11T12:05:22;2.97;;;1.13;;
50585;SDS011;36542;51.700;8.846;2023-03-11T12:10:54;6.13;;;1.63;;
50585;SDS011;36542;51.700;8.846;2023-03-11T12:21:57;3.10;;;1.07;;
50585;SDS011;36542;51.700;8.846;2023-03-11T12:25:20;5.07;;;1.57;;
50585;SDS011;36542;51.700;8.846;2023-03-11T12:27:25;3.97;;;1.23;;
50585;SDS011;36542;51.700;8.846;2023-03-11T12:30:00;3.17;;;1.40;;
50585;SDS011;36542;51.700;8.846;2023-03-11T12:32:38;3.87;;;1.50;;
50585;SDS011;36542;51.700;8.846;2023-03-11T12:35:18;4.97;;;1.60;;
50585;SDS011;36542;51.700;8.846;2023-03-11T12:38:05;4.73;;;1.63;;
50585;SDS011;36542;51.700;8.846;2023-03-11T12:40:45;3.97;;;1.50;;
50585;SDS011;36542;51.700;8.846;2023-03-11T12:45:55;3.97;;;1.57;;
50585;SDS011;36542;51.700;8.846;2023-03-11T12:50:53;3.50;;;1.90;;
50585;SDS011;36542;51.700;8.846;2023-03-11T12:53:19;6.53;;;1.47;;
50585;SDS011;36542;51.700;8.846;2023-03-11T12:56:26;5.23;;;1.60;;
50585;SDS011;36542;51.700;8.846;2023-03-11T12:59:03;3.67;;;1.47;;
50585;SDS011;36542;51.700;8.846;2023-03-11T13:04:50;5.77;;;1.13;;
50585;SDS011;36542;51.700;8.846;2023-03-11T13:09:58;5.37;;;1.90;;
50585;SDS011;36542;51.700;8.846;2023-03-11T13:12:44;2.27;;;1.20;;
50585;SDS011;36542;51.700;8.846;2023-03-11T13:31:22;3.70;;;1.40;;
50585;SDS011;36542;51.700;8.846;2023-03-11T13:34:01;6.33;;;1.27;;
50585;SDS011;36542;51.700;8.846;2023-03-11T13:39:10;3.10;;;1.57;;
50585;SDS011;36542;51.700;8.846;2023-03-11T13:41:42;3.07;;;1.87;;
50585;SDS011;36542;51.700;8.846;2023-03-11T13:44:10;4.17;;;2.00;;
50585;SDS011;36542;51.700;8.846;2023-03-11T13:46:44;4.10;;;1.60;;
50585;SDS011;36542;51.700;8.846;2023-03-11T13:52:29;4.53;;;1.67;;
50585;SDS011;36542;51.700;8.846;2023-03-11T13:55:02;3.27;;;1.50;;
50585;SDS011;36542;51.700;8.846;2023-03-11T13:57:33;3.50;;;1.50;;
50585;SDS011;36542;51.700;8.846;2023-03-11T14:00:14;5.67;;;1.60;;
50585;SDS011;36542;51.700;8.846;2023-03-11T14:02:57;2.73;;;1.30;;
50585;SDS011;36542;51.700;8.846;2023-03-11T14:05:30;4.50;;;1.43;;
50585;SDS011;36542;51.700;8.846;2023-03-11T14:10:53;3.93;;;1.70;;
50585;SDS011;36542;51.700;8.846;2023-03-11T14:13:20;6.97;;;1.20;;
50585;SDS011;36542;51.700;8.846;2023-03-11T14:15:51;6.90;;;1.90;;
50585;SDS011;36542;51.700;8.846;2023-03-11T14:18:28;8.73;;;1.73;;
50585;SDS011;36542;51.700;8.846;2023-03-11T14:21:03;2.23;;;1.40;;
50585;SDS011;36542;51.700;8.846;2023-03-11T14:23:41;5.27;;;1.47;;
50585;SDS011;36542;51.700;8.846;2023-03-11T14:26:13;3.80;;;1.67;;
50585;SDS011;36542;51.700;8.846;2023-03-11T14:28:43;3.30;;;1.40;;
50585;SDS011;36542;51.700;8.846;2023-03-11T14:36:42;2.07;;;1.40;;
50585;SDS011;36542;51.700;8.846;2023-03-11T14:39:22;7.73;;;1.50;;
50585;SDS011;36542;51.700;8.846;2023-03-11T14:41:47;1.87;;;1.40;;
50585;SDS011;36542;51.700;8.846;2023-03-11T14:44:15;4.20;;;1.33;;
50585;SDS011;36542;51.700;8.846;2023-03-11T14:46:41;5.23;;;1.83;;
50585;SDS011;36542;51.700;8.846;2023-03-11T14:49:10;5.43;;;1.70;;
50585;SDS011;36542;51.700;8.846;2023-03-11T14:51:42;5.17;;;1.40;;
50585;SDS011;36542;51.700;8.846;2023-03-11T14:54:15;5.47;;;1.40;;
50585;SDS011;36542;51.700;8.846;2023-03-11T14:56:46;3.97;;;1.53;;
50585;SDS011;36542;51.700;8.846;2023-03-11T14:59:26;2.97;;;1.33;;
50585;SDS011;36542;51.700;8.846;2023-03-11T15:01:56;5.83;;;1.60;;
50585;SDS011;36542;51.700;8.846;2023-03-11T15:04:29;6.40;;;2.20;;
50585;SDS011;36542;51.700;8.846;2023-03-11T15:06:59;4.77;;;1.37;;
50585;SDS011;36542;51.700;8.846;2023-03-11T15:09:27;2.73;;;1.63;;
50585;SDS011;36542;51.700;8.846;2023-03-11T15:11:55;5.10;;;2.23;;
50585;SDS011;36542;51.700;8.846;2023-03-11T15:14:26;3.50;;;1.67;;
50585;SDS011;36542;51.700;8.846;2023-03-11T15:16:52;2.60;;;1.13;;
50585;SDS011;36542;51.700;8.846;2023-03-11T15:19:20;3.03;;;1.30;;
50585;SDS011;36542;51.700;8.846;2023-03-11T15:21:52;3.53;;;1.50;;
50585;SDS011;36542;51.700;8.846;2023-03-11T15:24:23;3.07;;;1.60;;
50585;SDS011;36542;51.700;8.846;2023-03-11T15:26:54;1.63;;;1.27;;
50585;SDS011;36542;51.700;8.846;2023-03-11T15:29:28;5.93;;;1.00;;
50585;SDS011;36542;51.700;8.846;2023-03-11T15:31:56;6.63;;;2.20;;
50585;SDS011;36542;51.700;8.846;2023-03-11T15:34:24;3.17;;;1.30;;
50585;SDS011;36542;51.700;8.846;2023-03-11T15:39:44;3.50;;;1.20;;
50585;SDS011;36542;51.700;8.846;2023-03-11T15:42:12;3.33;;;1.70;;
50585;SDS011;36542;51.700;8.846;2023-03-11T15:44:42;10.20;;;6.13;;
50585;SDS011;36542;51.700;8.846;2023-03-11T15:47:20;3.53;;;2.10;;
50585;SDS011;36542;51.700;8.846;2023-03-11T15:49:47;5.37;;;1.13;;
50585;SDS011;36542;51.700;8.846;2023-03-11T15:52:14;1.03;;;0.97;;
50585;SDS011;36542;51.700;8.846;2023-03-11T15:54:40;2.20;;;1.00;;
50585;SDS011;36542;51.700;8.846;2023-03-11T15:57:07;2.27;;;1.23;;
50585;SDS011;36542;51.700;8.846;2023-03-11T15:59:34;3.63;;;1.70;;
50585;SDS011;36542;51.700;8.846;2023-03-11T16:02:01;2.60;;;1.90;;
50585;SDS011;36542;51.700;8.846;2023-03-11T16:04:27;2.23;;;1.60;;
50585;SDS011;36542;51.700;8.846;2023-03-11T16:06:52;3.00;;;1.27;;
50585;SDS011;36542;51.700;8.846;2023-03-11T16:09:18;2.80;;;1.30;;
50585;SDS011;36542;51.700;8.846;2023-03-11T16:11:44;2.80;;;1.30;;